Boris Syromyatnikov — UCUF — position and weather

sailwx.info

Track history (hours):
 
Tides and Currents Weather Stations Pressure Air Temp Water Temp Dewpoint Dewpoint Depression Visibility Wind Speed Wind Dir Waves Ship Positions

Boris Syromyatnikov

Last reported at 2014-Oct-31 14:27 UTC. Time now 2014-Nov-01 10:34 UTC.
Position N 61°51' W 005°09'.

Length 120 m; beam 19 m.

Type: Fishing. MMSI: 273529800.

Date/timePositionNaut miles runAvg speedWind from/ knotsBaromVisibWave heightAir tempDewpointWater temp
2014-Oct-31 14:27N 61°51' W 005°09'1011.2
2014-Oct-31 13:34N 61°54' W 005°30'1010.5
2014-Oct-31 12:33N 61°57' W 005°52'9 9.5
2014-Oct-31 11:33N 61°59' W 006°11'9 9.3
2014-Oct-31 10:34N 62°01' W 006°30'8 7.7
2014-Oct-31 09:33N 62°05' W 006°45'2 2.4
2014-Oct-31 08:33N 62°07' W 006°44'0 0.0
2014-Oct-31 07:33N 62°07' W 006°44'0 0.0
2014-Oct-31 06:33N 62°07' W 006°44'0 0.0
2014-Oct-31 05:33N 62°07' W 006°44'0 0.0
2014-Oct-31 04:33N 62°07' W 006°44'0 0.0
2014-Oct-31 03:33N 62°07' W 006°44'0 0.0
2014-Oct-31 02:33N 62°07' W 006°44'0 0.0
2014-Oct-31 01:33N 62°07' W 006°44'0 0.0
2014-Oct-31 00:33N 62°07' W 006°44'0 0.0
2014-Oct-30 23:33N 62°07' W 006°44'0 0.0
2014-Oct-30 22:33N 62°07' W 006°44'0 0.0
2014-Oct-30 21:33N 62°07' W 006°44'0 0.0
2014-Oct-30 20:33N 62°07' W 006°44'0 0.0
2014-Oct-30 19:33N 62°07' W 006°44'0 0.0
2014-Oct-30 18:33N 62°07' W 006°44'0 0.0
2014-Oct-30 17:33N 62°07' W 006°44'0 0.0
2014-Oct-30 16:33N 62°07' W 006°44'0 0.0
2014-Oct-30 15:30N 62°07' W 006°44'0 0.0
2014-Oct-30 14:30N 62°07' W 006°44'0 0.0
2014-Oct-30 13:33N 62°07' W 006°44'0 0.0
2014-Oct-30 12:33N 62°07' W 006°44'0 0.0
2014-Oct-30 11:33N 62°07' W 006°44'0 0.0
2014-Oct-30 10:33N 62°07' W 006°44'0 0.0
2014-Oct-30 09:33N 62°07' W 006°44'0 0.0
2014-Oct-30 08:33N 62°07' W 006°44'0 0.0
2014-Oct-30 07:30N 62°07' W 006°44'0 0.0
2014-Oct-30 06:30N 62°07' W 006°44'0 0.0
2014-Oct-30 05:33N 62°07' W 006°44'0 0.0
2014-Oct-30 04:33N 62°07' W 006°44'0 0.0
2014-Oct-30 03:33N 62°07' W 006°44'0 0.0
2014-Oct-30 02:30N 62°07' W 006°44'0 0.0
2014-Oct-30 01:33N 62°07' W 006°44'0 0.0
2014-Oct-30 00:30N 62°07' W 006°44'0 0.0
2014-Oct-29 23:33N 62°07' W 006°44'0 0.0
2014-Oct-29 22:33N 62°07' W 006°44'0 0.0
2014-Oct-29 21:33N 62°07' W 006°44'0 0.0
2014-Oct-29 20:30N 62°07' W 006°44'0 0.0
2014-Oct-29 19:33N 62°07' W 006°44'0 0.0
2014-Oct-29 18:33N 62°07' W 006°44'0 0.0
2014-Oct-29 17:32N 62°07' W 006°44'0 0.0
2014-Oct-29 16:29N 62°07' W 006°44'0 0.0
2014-Oct-29 15:32N 62°07' W 006°44'0 0.0
2014-Oct-29 14:29N 62°07' W 006°44'0 0.0
2014-Oct-29 13:32N 62°07' W 006°44'0 0.0
2014-Oct-29 12:32N 62°07' W 006°44'0 0.0
2014-Oct-29 11:32N 62°07' W 006°44'0 0.0
2014-Oct-29 10:29N 62°07' W 006°44'0 0.0
2014-Oct-29 09:32N 62°07' W 006°44'0 0.0
2014-Oct-29 08:32N 62°07' W 006°44'0 0.0
2014-Oct-29 07:32N 62°07' W 006°44'0 0.0
2014-Oct-29 06:32N 62°07' W 006°44'0 0.0
2014-Oct-29 05:32N 62°07' W 006°44'0 0.0
2014-Oct-29 04:32N 62°07' W 006°44'0 0.0
2014-Oct-29 03:26N 62°07' W 006°44'0 0.0
2014-Oct-29 02:33N 62°07' W 006°44'0 0.0
2014-Oct-29 01:33N 62°07' W 006°44'0 0.0
2014-Oct-29 00:33N 62°07' W 006°44'0 0.0
2014-Oct-28 23:34N 62°07' W 006°44'0 0.3
2014-Oct-28 22:33N 62°07' W 006°44'6 5.9
2014-Oct-28 21:33N 62°03' W 006°34'1313.3
2014-Oct-28 20:34N 62°12' W 006°13'  
Track history (hours):
 
Tides and Currents Weather Stations Pressure Air Temp Water Temp Dewpoint Dewpoint Depression Visibility Wind Speed Wind Dir Waves Ship Positions

Boris Syromyatnikov

Last reported at 2014-Oct-31 14:27 UTC. Time now 2014-Nov-01 10:34 UTC.
Position N 61°51' W 005°09'.

Length 120 m; beam 19 m.

Type: Fishing. MMSI: 273529800.

Date/timePositionNaut miles runAvg speedWind from/ knotsBaromVisibWave heightAir tempDewpointWater temp
2014-Oct-31 14:27N 61°51' W 005°09'1011.2
2014-Oct-31 13:34N 61°54' W 005°30'1010.5
2014-Oct-31 12:33N 61°57' W 005°52'9 9.5
2014-Oct-31 11:33N 61°59' W 006°11'9 9.3
2014-Oct-31 10:34N 62°01' W 006°30'8 7.7
2014-Oct-31 09:33N 62°05' W 006°45'2 2.4
2014-Oct-31 08:33N 62°07' W 006°44'0 0.0
2014-Oct-31 07:33N 62°07' W 006°44'0 0.0
2014-Oct-31 06:33N 62°07' W 006°44'0 0.0
2014-Oct-31 05:33N 62°07' W 006°44'0 0.0
2014-Oct-31 04:33N 62°07' W 006°44'0 0.0
2014-Oct-31 03:33N 62°07' W 006°44'0 0.0
2014-Oct-31 02:33N 62°07' W 006°44'0 0.0
2014-Oct-31 01:33N 62°07' W 006°44'0 0.0
2014-Oct-31 00:33N 62°07' W 006°44'0 0.0
2014-Oct-30 23:33N 62°07' W 006°44'0 0.0
2014-Oct-30 22:33N 62°07' W 006°44'0 0.0
2014-Oct-30 21:33N 62°07' W 006°44'0 0.0
2014-Oct-30 20:33N 62°07' W 006°44'0 0.0
2014-Oct-30 19:33N 62°07' W 006°44'0 0.0
2014-Oct-30 18:33N 62°07' W 006°44'0 0.0
2014-Oct-30 17:33N 62°07' W 006°44'0 0.0
2014-Oct-30 16:33N 62°07' W 006°44'0 0.0
2014-Oct-30 15:30N 62°07' W 006°44'0 0.0
2014-Oct-30 14:30N 62°07' W 006°44'0 0.0
2014-Oct-30 13:33N 62°07' W 006°44'0 0.0
2014-Oct-30 12:33N 62°07' W 006°44'0 0.0
2014-Oct-30 11:33N 62°07' W 006°44'0 0.0
2014-Oct-30 10:33N 62°07' W 006°44'0 0.0
2014-Oct-30 09:33N 62°07' W 006°44'0 0.0
2014-Oct-30 08:33N 62°07' W 006°44'0 0.0
2014-Oct-30 07:30N 62°07' W 006°44'0 0.0
2014-Oct-30 06:30N 62°07' W 006°44'0 0.0
2014-Oct-30 05:33N 62°07' W 006°44'0 0.0
2014-Oct-30 04:33N 62°07' W 006°44'0 0.0
2014-Oct-30 03:33N 62°07' W 006°44'0 0.0
2014-Oct-30 02:30N 62°07' W 006°44'0 0.0
2014-Oct-30 01:33N 62°07' W 006°44'0 0.0
2014-Oct-30 00:30N 62°07' W 006°44'0 0.0
2014-Oct-29 23:33N 62°07' W 006°44'0 0.0
2014-Oct-29 22:33N 62°07' W 006°44'0 0.0
2014-Oct-29 21:33N 62°07' W 006°44'0 0.0
2014-Oct-29 20:30N 62°07' W 006°44'0 0.0
2014-Oct-29 19:33N 62°07' W 006°44'0 0.0
2014-Oct-29 18:33N 62°07' W 006°44'0 0.0
2014-Oct-29 17:32N 62°07' W 006°44'0 0.0
2014-Oct-29 16:29N 62°07' W 006°44'0 0.0
2014-Oct-29 15:32N 62°07' W 006°44'0 0.0
2014-Oct-29 14:29N 62°07' W 006°44'0 0.0
2014-Oct-29 13:32N 62°07' W 006°44'0 0.0
2014-Oct-29 12:32N 62°07' W 006°44'0 0.0
2014-Oct-29 11:32N 62°07' W 006°44'0 0.0
2014-Oct-29 10:29N 62°07' W 006°44'0 0.0
2014-Oct-29 09:32N 62°07' W 006°44'0 0.0
2014-Oct-29 08:32N 62°07' W 006°44'0 0.0
2014-Oct-29 07:32N 62°07' W 006°44'0 0.0
2014-Oct-29 06:32N 62°07' W 006°44'0 0.0
2014-Oct-29 05:32N 62°07' W 006°44'0 0.0
2014-Oct-29 04:32N 62°07' W 006°44'0 0.0
2014-Oct-29 03:26N 62°07' W 006°44'0 0.0
2014-Oct-29 02:33N 62°07' W 006°44'0 0.0
2014-Oct-29 01:33N 62°07' W 006°44'0 0.0
2014-Oct-29 00:33N 62°07' W 006°44'0 0.0
2014-Oct-28 23:34N 62°07' W 006°44'0 0.3
2014-Oct-28 22:33N 62°07' W 006°44'6 5.9
2014-Oct-28 21:33N 62°03' W 006°34'1313.3
2014-Oct-28 20:34N 62°12' W 006°13'  

Dump ship's entire track history